Time;durP1;ratioP1;P1;durP2;ratioP2;P2;SDS_P1;SDS_P2;PMS_P1;PMS_P2;Temp;Humidity;BMP_temperature;BMP_pressure;BME280_temperature;BME280_humidity;BME280_pressure;Samples;Min_cycle;Max_cycle;Signal;HPM_P1;HPM_P2
2024/03/21 00:02:23;;;;;;;0.00;0.00;;;;;;;;;;4895558;29;20037;-90
2024/03/21 00:04:50;;;;;;;0.00;0.00;;;;;;;;;;4892105;29;20055;-92
2024/03/21 00:07:16;;;;;;;0.00;0.00;;;;;;;;;;4892796;29;20042;-91
2024/03/21 00:09:42;;;;;;;0.00;0.00;;;;;;;;;;4891753;29;20116;-90
2024/03/21 00:12:08;;;;;;;0.10;0.10;;;;;;;;;;4906932;29;20092;-89
2024/03/21 00:14:35;;;;;;;0.00;0.00;;;;;;;;;;4893833;29;20037;-90
2024/03/21 00:17:01;;;;;;;0.00;0.00;;;;;;;;;;4899991;29;20044;-90
2024/03/21 00:19:27;;;;;;;0.00;0.00;;;;;;;;;;4910172;29;20037;-91
2024/03/21 00:21:53;;;;;;;0.03;0.03;;;;;;;;;;4889536;29;20072;-89
2024/03/21 00:24:20;;;;;;;0.00;0.00;;;;;;;;;;4893804;29;20029;-90
2024/03/21 00:26:46;;;;;;;0.00;0.00;;;;;;;;;;4894230;29;20035;-90
2024/03/21 00:29:12;;;;;;;0.00;0.00;;;;;;;;;;4893737;29;20032;-90
2024/03/21 00:31:39;;;;;;;0.00;0.00;;;;;;;;;;4894877;29;20168;-91
2024/03/21 00:34:05;;;;;;;0.00;0.00;;;;;;;;;;4907782;29;20575;-90
2024/03/21 00:36:31;;;;;;;0.00;0.00;;;;;;;;;;4890242;29;20526;-90
2024/03/21 00:38:57;;;;;;;0.00;0.00;;;;;;;;;;4892949;29;20073;-90
2024/03/21 00:41:24;;;;;;;0.00;0.00;;;;;;;;;;4895872;29;20487;-90
2024/03/21 00:43:50;;;;;;;0.00;0.00;;;;;;;;;;4914278;29;20559;-90
2024/03/21 00:46:16;;;;;;;0.00;0.00;;;;;;;;;;4894688;29;20197;-89
2024/03/21 00:48:42;;;;;;;0.00;0.00;;;;;;;;;;4919190;29;20484;-90
2024/03/21 00:51:09;;;;;;;0.00;0.00;;;;;;;;;;4891996;29;20515;-90
2024/03/21 00:53:35;;;;;;;0.00;0.00;;;;;;;;;;4899833;29;20064;-90
2024/03/21 00:56:01;;;;;;;0.00;0.00;;;;;;;;;;4899193;29;20084;-90
2024/03/21 00:58:27;;;;;;;0.00;0.00;;;;;;;;;;4900626;29;20045;-90
2024/03/21 01:00:53;;;;;;;0.00;0.00;;;;;;;;;;4897497;29;20043;-90
2024/03/21 01:03:19;;;;;;;0.00;0.00;;;;;;;;;;4897900;29;20033;-88
2024/03/21 01:05:51;;;;;;;0.10;0.10;;;;;;;;;;4916606;29;20033;-90
2024/03/21 01:08:17;;;;;;;0.00;0.00;;;;;;;;;;4893813;29;20088;-90
2024/03/21 01:10:52;;;;;;;0.00;0.00;;;;;;;;;;4894840;29;20060;-90
2024/03/21 01:13:18;;;;;;;0.00;0.00;;;;;;;;;;4902828;29;20040;-87
2024/03/21 01:15:45;;;;;;;0.00;0.00;;;;;;;;;;4895953;29;20033;-91
2024/03/21 01:18:11;;;;;;;0.00;0.00;;;;;;;;;;4894359;29;20043;-89
2024/03/21 01:20:40;;;;;;;0.00;0.00;;;;;;;;;;4891097;29;20037;-91
2024/03/21 01:23:06;;;;;;;0.00;0.00;;;;;;;;;;4893627;29;20037;-90
2024/03/21 01:25:32;;;;;;;0.00;0.00;;;;;;;;;;4895354;29;20036;-91
2024/03/21 01:28:01;;;;;;;0.00;0.00;;;;;;;;;;4898274;29;20032;-88
2024/03/21 01:30:28;;;;;;;0.00;0.00;;;;;;;;;;4898732;29;20037;-90
2024/03/21 01:32:54;;;;;;;0.00;0.00;;;;;;;;;;4901068;29;20032;-91
2024/03/21 01:35:20;;;;;;;0.00;0.00;;;;;;;;;;4923577;29;20040;-91
2024/03/21 01:37:47;;;;;;;0.00;0.00;;;;;;;;;;4893802;29;20495;-91
2024/03/21 01:40:13;;;;;;;0.00;0.00;;;;;;;;;;4897599;29;20028;-91
2024/03/21 01:42:39;;;;;;;0.00;0.00;;;;;;;;;;4900456;29;20032;-92
2024/03/21 01:45:06;;;;;;;0.00;0.00;;;;;;;;;;4903694;29;20029;-92
2024/03/21 01:47:35;;;;;;;0.00;0.00;;;;;;;;;;4900879;29;20472;-90
2024/03/21 01:50:01;;;;;;;0.10;0.10;;;12.00;99.90;;;;;;4901066;29;20036;-90
2024/03/21 01:52:28;;;;;;;0.00;0.00;;;12.00;99.90;;;;;;4913173;29;20114;-89
2024/03/21 01:54:54;;;;;;;0.00;0.00;;;;;;;;;;4897077;29;20025;-89
2024/03/21 01:57:21;;;;;;;0.00;0.00;;;;;;;;;;4898322;29;20028;-90
2024/03/21 01:59:47;;;;;;;0.00;0.00;;;;;;;;;;4888750;29;20124;-89
2024/03/21 02:02:13;;;;;;;0.00;0.00;;;;;;;;;;4899127;29;20064;-90
2024/03/21 02:04:39;;;;;;;0.00;0.00;;;;;;;;;;4895895;29;20029;-91
2024/03/21 02:07:05;;;;;;;0.00;0.00;;;;;;;;;;4893853;29;20035;-89
2024/03/21 02:09:31;;;;;;;0.00;0.00;;;;;;;;;;4902621;29;20069;-91
2024/03/21 02:12:06;;;;;;;0.00;0.00;;;12.00;99.90;;;;;;4893981;29;20469;-87
2024/03/21 02:14:36;;;;;;;0.00;0.00;;;12.00;99.90;;;;;;4923757;29;20036;-90
2024/03/21 02:17:02;;;;;;;0.00;0.00;;;;;;;;;;4900143;29;20299;-89
2024/03/21 02:37:35;;;;;;;0.00;0.00;;;;;;;;;;4917468;29;20059;-92
2024/03/21 02:40:01;;;;;;;0.00;0.00;;;;;;;;;;4908023;29;20032;-90
2024/03/21 02:42:27;;;;;;;0.00;0.00;;;;;;;;;;4912202;29;20059;-92
2024/03/21 02:44:53;;;;;;;0.00;0.00;;;;;;;;;;4906642;29;20056;-92
2024/03/21 02:47:19;;;;;;;0.00;0.00;;;;;;;;;;4906492;29;20083;-90
2024/03/21 04:09:56;;;;;;;;;;;12.10;99.90;;;;;;4913502;29;20044;-91
2024/03/21 04:12:22;;;;;;;0.00;0.00;;;;;;;;;;4911958;29;19944;-91
2024/03/21 04:14:51;;;;;;;0.00;0.00;;;;;;;;;;4910401;29;20092;-91
2024/03/21 04:17:18;;;;;;;0.00;0.00;;;;;;;;;;4907907;29;20033;-92
2024/03/21 04:19:43;;;;;;;0.00;0.00;;;;;;;;;;4910790;29;20036;-90
2024/03/21 05:29:27;;;;;;;0.00;0.00;;;;;;;;;;4911360;29;20040;-91
2024/03/21 05:31:53;;;;;;;0.00;0.00;;;;;;;;;;4923966;29;20403;-92
2024/03/21 05:34:19;;;;;;;0.00;0.00;;;;;;;;;;4902090;29;20515;-92
2024/03/21 05:36:45;;;;;;;0.00;0.00;;;;;;;;;;4905555;29;20169;-91
2024/03/21 05:39:11;;;;;;;0.00;0.00;;;;;;;;;;4907391;29;20028;-90
2024/03/21 07:18:27;;;;;;;0.00;0.00;;;;;;;;;;4916561;29;20075;-90
2024/03/21 07:20:57;;;;;;;0.00;0.00;;;;;;;;;;4908402;29;20064;-91
2024/03/21 07:23:23;;;;;;;0.10;0.10;;;;;;;;;;4909184;29;20040;-91
2024/03/21 07:25:48;;;;;;;0.00;0.00;;;;;;;;;;4905641;29;20032;-90
2024/03/21 07:28:14;;;;;;;0.00;0.00;;;;;;;;;;4901334;29;20108;-90
2024/03/21 07:48:42;;;;;;;0.00;0.00;;;;;;;;;;4920193;29;20095;-91
2024/03/21 07:51:08;;;;;;;0.10;0.10;;;;;;;;;;4925659;29;20107;-90
2024/03/21 07:53:34;;;;;;;0.00;0.00;;;;;;;;;;4907413;29;20036;-90
2024/03/21 07:56:00;;;;;;;0.08;0.08;;;;;;;;;;4903506;29;20488;-90
2024/03/21 07:58:25;;;;;;;0.10;0.10;;;10.50;99.90;;;;;;4908437;29;20044;-90
2024/03/21 08:35:02;;;;;;;0.10;0.10;;;;;;;;;;4915328;29;20060;-92
2024/03/21 08:37:28;;;;;;;0.10;0.10;;;9.40;99.90;;;;;;4914209;29;20092;-92
2024/03/21 08:39:57;;;;;;;0.10;0.10;;;;;;;;;;4927195;29;20090;-92
2024/03/21 08:42:23;;;;;;;0.00;0.00;;;;;;;;;;4900554;29;20405;-90
2024/03/21 08:44:49;;;;;;;0.10;0.10;;;;;;;;;;4905164;29;20032;-92
2024/03/21 08:47:15;;;;;;;0.10;0.10;;;;;;;;;;4901818;29;20493;-92
2024/03/21 08:49:41;;;;;;;0.10;0.10;;;;;;;;;;4901746;29;20115;-92
2024/03/21 08:52:07;;;;;;;0.10;0.10;;;;;;;;;;4903591;29;20491;-92
2024/03/21 08:54:33;;;;;;;0.10;0.10;;;;;;;;;;4906259;29;20038;-92
2024/03/21 08:56:59;;;;;;;0.00;0.00;;;;;;;;;;4904729;29;20116;-92
2024/03/21 08:59:25;;;;;;;0.10;0.10;;;;;;;;;;4906655;29;20024;-90
2024/03/21 09:01:51;;;;;;;0.10;0.10;;;;;;;;;;4908098;29;20055;-92
2024/03/21 09:04:20;;;;;;;0.10;0.10;;;;;;;;;;4904845;29;20036;-92
2024/03/21 09:06:46;;;;;;;0.08;0.08;;;;;;;;;;4900623;29;20041;-93
2024/03/21 09:09:12;;;;;;;0.10;0.10;;;;;;;;;;4901315;29;20376;-92
2024/03/21 09:11:38;;;;;;;0.10;0.10;;;;;;;;;;4899453;29;20040;-92
2024/03/21 09:14:04;;;;;;;0.10;0.10;;;;;;;;;;4901232;29;20029;-93
2024/03/21 09:16:30;;;;;;;0.00;0.00;;;;;;;;;;4903953;29;20039;-92
2024/03/21 09:18:56;;;;;;;0.10;0.10;;;;;;;;;;4897799;29;20411;-91
2024/03/21 09:21:22;;;;;;;0.03;0.03;;;;;;;;;;4908315;29;20787;-91
2024/03/21 09:23:48;;;;;;;0.00;0.00;;;;;;;;;;4899893;29;20029;-92
2024/03/21 09:26:14;;;;;;;0.10;0.10;;;;;;;;;;4899107;29;20069;-92
2024/03/21 09:28:43;;;;;;;0.10;0.10;;;;;;;;;;4902959;29;20036;-91
2024/03/21 09:31:09;;;;;;;0.10;0.10;;;;;;;;;;4904431;29;20475;-91
2024/03/21 09:33:35;;;;;;;0.10;0.10;;;;;;;;;;4900998;29;20036;-92
2024/03/21 09:36:03;;;;;;;0.10;0.10;;;;;;;;;;4896492;29;20040;-92
2024/03/21 09:38:29;;;;;;;0.10;0.10;;;;;;;;;;4902105;29;20032;-90
2024/03/21 09:40:56;;;;;;;0.10;0.10;;;9.40;99.90;;;;;;4899609;29;20036;-91
2024/03/21 09:43:23;;;;;;;0.10;0.10;;;;;;;;;;4901995;29;20041;-91
2024/03/21 09:45:52;;;;;;;0.10;0.10;;;;;;;;;;4900509;29;20036;-91
2024/03/21 09:48:18;;;;;;;0.00;0.00;;;;;;;;;;4906201;29;20499;-92
2024/03/21 09:50:46;;;;;;;0.10;0.10;;;9.50;99.90;;;;;;4907488;29;20103;-92
2024/03/21 09:53:15;;;;;;;0.10;0.10;;;9.70;99.90;;;;;;4903730;29;20131;-92
2024/03/21 12:02:35;;;;;;;0.03;0.03;;;12.10;99.90;;;;;;4923587;29;19917;-90
2024/03/21 12:05:22;;;;;;;0.00;0.00;;;12.10;99.90;;;;;;4867710;29;20052;-90
2024/03/21 12:07:47;;;;;;;0.00;0.00;;;;;;;;;;4904739;29;20082;-89
2024/03/21 12:10:13;;;;;;;0.00;0.00;;;11.90;99.90;;;;;;4905986;29;20668;-90
2024/03/21 12:12:39;;;;;;;0.00;0.00;;;;;;;;;;4915976;29;20119;-90
2024/03/21 12:15:05;;;;;;;0.00;0.00;;;12.00;99.90;;;;;;4909877;29;20062;-90
2024/03/21 12:17:32;;;;;;;0.00;0.00;;;12.00;99.90;;;;;;4904819;29;20047;-90
2024/03/21 12:19:58;;;;;;;0.00;0.00;;;12.30;99.90;;;;;;4918891;29;20055;-90
2024/03/21 12:22:24;;;;;;;0.00;0.00;;;;;;;;;;4914432;29;20044;-90
2024/03/21 12:24:50;;;;;;;0.00;0.00;;;;;;;;;;4905766;29;20388;-90
2024/03/21 12:27:16;;;;;;;0.00;0.00;;;;;;;;;;4913624;29;20058;-90
2024/03/21 12:29:43;;;;;;;0.00;0.00;;;;;;;;;;4914479;29;20153;-90
2024/03/21 12:32:09;;;;;;;0.00;0.00;;;;;;;;;;4911696;29;20109;-90
2024/03/21 12:34:36;;;;;;;0.00;0.00;;;12.00;99.90;;;;;;4914075;29;20040;-90
2024/03/21 12:37:04;;;;;;;0.00;0.00;;;;;;;;;;4910121;29;20035;-89
2024/03/21 12:39:30;;;;;;;0.00;0.00;;;;;;;;;;4938393;28;20024;-89
2024/03/21 12:41:56;;;;;;;0.00;0.00;;;;;;;;;;4912771;29;20084;-90
2024/03/21 12:44:22;;;;;;;0.00;0.00;;;;;;;;;;4903198;29;20032;-90
2024/03/21 12:46:48;;;;;;;0.00;0.00;;;;;;;;;;4908426;29;20032;-89
2024/03/21 12:49:14;;;;;;;0.00;0.00;;;;;;;;;;4916127;29;20024;-89
2024/03/21 12:51:40;;;;;;;0.00;0.00;;;;;;;;;;4939846;29;20051;-87
2024/03/21 12:54:06;;;;;;;0.00;0.00;;;;;;;;;;4937649;29;20020;-87
2024/03/21 12:56:33;;;;;;;0.00;0.00;;;;;;;;;;4947208;28;20025;-88
2024/03/21 12:58:58;;;;;;;0.00;0.00;;;;;;;;;;4911918;29;20032;-90
2024/03/21 13:01:24;;;;;;;0.00;0.00;;;12.20;99.90;;;;;;4932185;28;20077;-89
2024/03/21 13:03:50;;;;;;;0.00;0.00;;;;;;;;;;4904548;29;20081;-90
2024/03/21 13:06:15;;;;;;;0.00;0.00;;;11.90;99.90;;;;;;4912162;29;20139;-88
2024/03/21 13:08:41;;;;;;;0.00;0.00;;;;;;;;;;4905299;29;20020;-89
2024/03/21 13:11:07;;;;;;;0.03;0.03;;;;;;;;;;4902673;29;20033;-89
2024/03/21 13:13:33;;;;;;;0.00;0.00;;;;;;;;;;4916870;29;20039;-88
2024/03/21 13:15:59;;;;;;;0.00;0.00;;;;;;;;;;4909342;29;20482;-89
2024/03/21 13:18:25;;;;;;;0.00;0.00;;;;;;;;;;4907899;29;20035;-90
2024/03/21 13:20:51;;;;;;;0.00;0.00;;;;;;;;;;4905893;29;20024;-89
2024/03/21 13:23:17;;;;;;;0.00;0.00;;;;;;;;;;4925221;29;20102;-89
2024/03/21 13:25:43;;;;;;;0.00;0.00;;;;;;;;;;4933206;28;20035;-89
2024/03/21 13:28:09;;;;;;;0.00;0.00;;;;;;;;;;4924649;29;20405;-89
2024/03/21 13:30:36;;;;;;;0.00;0.00;;;;;;;;;;4920073;29;20044;-90
2024/03/21 13:33:02;;;;;;;0.00;0.00;;;;;;;;;;4917196;29;20021;-89
2024/03/21 13:35:28;;;;;;;0.00;0.00;;;;;;;;;;4942246;28;20040;-89
2024/03/21 13:37:54;;;;;;;0.00;0.00;;;;;;;;;;4944597;28;20036;-90
2024/03/21 13:40:21;;;;;;;0.00;0.00;;;;;;;;;;4914790;29;20036;-89
2024/03/21 13:42:47;;;;;;;0.00;0.00;;;;;;;;;;4915579;29;20275;-89
2024/03/21 13:45:12;;;;;;;0.00;0.00;;;13.00;99.90;;;;;;4924080;29;20119;-90
2024/03/21 13:47:39;;;;;;;0.00;0.00;;;;;;;;;;4923888;29;20116;-89
2024/03/21 13:50:06;;;;;;;0.00;0.00;;;12.50;99.90;;;;;;4928985;29;20043;-89
2024/03/21 13:52:32;;;;;;;0.00;0.00;;;;;;;;;;4919410;29;20047;-90
2024/03/21 13:55:01;;;;;;;0.00;0.00;;;;;;;;;;4911553;29;20033;-89
2024/03/21 13:57:34;;;;;;;0.10;0.10;;;12.50;99.90;;;;;;4942132;28;20059;-89
2024/03/21 14:00:00;;;;;;;0.00;0.00;;;;;;;;;;4916485;29;20032;-89
2024/03/21 14:02:30;;;;;;;0.00;0.00;;;;;;;;;;4910895;29;20115;-89
2024/03/21 14:04:56;;;;;;;0.00;0.00;;;;;;;;;;4918655;29;20051;-89
2024/03/21 14:07:22;;;;;;;0.00;0.00;;;;;;;;;;4913798;29;20058;-90
2024/03/21 14:09:48;;;;;;;0.00;0.00;;;;;;;;;;4920151;29;20022;-89
2024/03/21 14:12:14;;;;;;;0.00;0.00;;;;;;;;;;4937242;28;20035;-89
2024/03/21 14:14:40;;;;;;;0.00;0.00;;;;;;;;;;4913867;29;20028;-90
2024/03/21 14:17:07;;;;;;;0.00;0.00;;;;;;;;;;4910090;29;20544;-90
2024/03/21 14:19:33;;;;;;;0.00;0.00;;;;;;;;;;4917548;29;20118;-90
2024/03/21 14:21:59;;;;;;;0.00;0.00;;;;;;;;;;4907070;29;20180;-90
2024/03/21 14:24:25;;;;;;;0.00;0.00;;;;;;;;;;4910377;29;20123;-89
2024/03/21 14:26:51;;;;;;;0.00;0.00;;;;;;;;;;4907402;29;20506;-90
2024/03/21 14:29:17;;;;;;;0.00;0.00;;;;;;;;;;4914524;29;20252;-89
2024/03/21 14:31:43;;;;;;;0.00;0.00;;;;;;;;;;4913194;29;20025;-89
2024/03/21 14:34:09;;;;;;;0.00;0.00;;;;;;;;;;4907422;29;20092;-89
2024/03/21 14:36:35;;;;;;;0.00;0.00;;;;;;;;;;4932302;28;20037;-89
2024/03/21 14:39:02;;;;;;;0.00;0.00;;;;;;;;;;4916692;29;20084;-88
2024/03/21 14:41:30;;;;;;;0.00;0.00;;;;;;;;;;4917242;29;20035;-89
2024/03/21 14:43:56;;;;;;;0.00;0.00;;;;;;;;;;4916116;29;20035;-89
2024/03/21 14:46:22;;;;;;;0.00;0.00;;;;;;;;;;4928993;29;20023;-90
2024/03/21 14:48:48;;;;;;;0.00;0.00;;;;;;;;;;4936304;29;20019;-90
2024/03/21 14:51:14;;;;;;;0.00;0.00;;;;;;;;;;4936168;29;20542;-90
2024/03/21 14:53:40;;;;;;;0.00;0.00;;;;;;;;;;4930040;29;20024;-90
2024/03/21 14:56:07;;;;;;;0.00;0.00;;;;;;;;;;4899450;29;20120;-89
2024/03/21 14:58:33;;;;;;;0.00;0.00;;;;;;;;;;4913096;29;20114;-90
2024/03/21 15:00:59;;;;;;;0.00;0.00;;;;;;;;;;4937073;29;20038;-89
2024/03/21 15:03:25;;;;;;;0.00;0.00;;;;;;;;;;4934783;29;20116;-90
2024/03/21 15:05:51;;;;;;;0.00;0.00;;;;;;;;;;4916292;29;20048;-89
2024/03/21 15:08:20;;;;;;;0.00;0.00;;;;;;;;;;4899475;29;20028;-90
2024/03/21 15:10:46;;;;;;;0.00;0.00;;;;;;;;;;4903890;29;20118;-89
2024/03/21 15:13:12;;;;;;;0.00;0.00;;;;;;;;;;4917819;29;20094;-89
2024/03/21 15:15:38;;;;;;;0.00;0.00;;;12.80;99.90;;;;;;4917428;29;20043;-88
2024/03/21 15:18:04;;;;;;;0.00;0.00;;;12.60;99.90;;;;;;4917814;29;20055;-89
2024/03/21 15:20:32;;;;;;;0.00;0.00;;;12.80;99.90;;;;;;4917694;29;20054;-89
2024/03/21 15:22:58;;;;;;;0.00;0.00;;;;;;;;;;4914327;29;20469;-89
2024/03/21 15:25:24;;;;;;;0.00;0.00;;;13.00;99.90;;;;;;4898729;29;20064;-89
2024/03/21 15:27:49;;;;;;;0.00;0.00;;;;;;;;;;4923724;29;20063;-89
2024/03/21 15:30:16;;;;;;;0.00;0.00;;;;;;;;;;4927623;29;20058;-89
2024/03/21 15:32:46;;;;;;;0.00;0.00;;;;;;;;;;4917790;29;20502;-89
2024/03/21 15:35:14;;;;;;;0.00;0.00;;;;;;;;;;4914007;29;20031;-89
2024/03/21 15:37:40;;;;;;;0.00;0.00;;;;;;;;;;4906749;29;20504;-89
2024/03/21 15:40:06;;;;;;;0.00;0.00;;;12.60;99.90;;;;;;4936488;29;20071;-90
2024/03/21 15:42:32;;;;;;;0.00;0.00;;;;;;;;;;4935975;29;20115;-89
2024/03/21 15:44:58;;;;;;;0.00;0.00;;;;;;;;;;4936327;29;20175;-89
2024/03/21 15:47:24;;;;;;;0.00;0.00;;;;;;;;;;4935657;29;20030;-89
2024/03/21 15:49:51;;;;;;;0.00;0.00;;;;;;;;;;4935896;29;20119;-88
2024/03/21 15:52:17;;;;;;;0.00;0.00;;;;;;;;;;4917274;29;20486;-89
2024/03/21 15:54:43;;;;;;;0.00;0.00;;;;;;;;;;4907368;29;20023;-89
2024/03/21 15:57:09;;;;;;;0.00;0.00;;;12.90;99.90;;;;;;4953738;23;20110;-90
2024/03/21 15:59:34;;;;;;;0.00;0.00;;;;;;;;;;4954515;29;20386;-90
2024/03/21 16:02:00;;;;;;;0.00;0.00;;;12.50;99.90;;;;;;4948169;28;20030;-91
2024/03/21 16:04:26;;;;;;;0.00;0.00;;;;;;;;;;4931553;29;20471;-90
2024/03/21 16:06:52;;;;;;;0.00;0.00;;;;;;;;;;4934827;29;20023;-90
2024/03/21 16:09:18;;;;;;;0.00;0.00;;;;;;;;;;4926571;29;20036;-90
2024/03/21 16:11:44;;;;;;;0.00;0.00;;;;;;;;;;4944992;23;20113;-90
2024/03/21 16:14:10;;;;;;;0.00;0.00;;;;;;;;;;4940174;29;20074;-90
2024/03/21 16:16:36;;;;;;;0.00;0.00;;;;;;;;;;4946237;29;20102;-91
2024/03/21 16:19:02;;;;;;;0.00;0.00;;;;;;;;;;4947784;28;20032;-90
2024/03/21 16:21:28;;;;;;;0.00;0.00;;;;;;;;;;4959456;28;20035;-90
2024/03/21 16:23:57;;;;;;;0.00;0.00;;;;;;;;;;4915119;29;20104;-89
2024/03/21 16:26:25;;;;;;;0.00;0.00;;;;;;;;;;4938819;29;20028;-90
2024/03/21 16:28:51;;;;;;;0.00;0.00;;;;;;;;;;4923879;29;20027;-90
2024/03/21 16:31:17;;;;;;;0.00;0.00;;;;;;;;;;4933478;29;20028;-90
2024/03/21 16:33:43;;;;;;;0.00;0.00;;;;;;;;;;4935374;29;20047;-90
2024/03/21 16:36:09;;;;;;;0.00;0.00;;;;;;;;;;4920661;29;20389;-90
2024/03/21 16:38:35;;;;;;;0.00;0.00;;;;;;;;;;4918781;29;20032;-90
2024/03/21 16:41:01;;;;;;;0.00;0.00;;;;;;;;;;4913799;29;20028;-90
2024/03/21 16:43:27;;;;;;;0.00;0.00;;;;;;;;;;4917650;29;20032;-91
2024/03/21 16:45:53;;;;;;;0.00;0.00;;;;;;;;;;4917972;29;20024;-90
2024/03/21 16:48:19;;;;;;;0.00;0.00;;;;;;;;;;4917181;29;20039;-90
2024/03/21 16:50:48;;;;;;;0.00;0.00;;;;;;;;;;4918089;29;20754;-90
2024/03/21 16:53:14;;;;;;;0.00;0.00;;;;;;;;;;4918602;29;20032;-91
2024/03/21 16:55:40;;;;;;;0.00;0.00;;;;;;;;;;4918185;29;20036;-90
2024/03/21 16:58:06;;;;;;;0.00;0.00;;;;;;;;;;4920951;29;20377;-90
2024/03/21 17:00:32;;;;;;;0.00;0.00;;;;;;;;;;4952590;28;20028;-90
2024/03/21 17:03:00;;;;;;;0.00;0.00;;;;;;;;;;4929473;29;20024;-91
2024/03/21 17:05:26;;;;;;;0.00;0.00;;;;;;;;;;4952391;28;20126;-90
2024/03/21 17:07:54;;;;;;;0.00;0.00;;;;;;;;;;4921597;29;20051;-91
2024/03/21 17:10:21;;;;;;;0.00;0.00;;;;;;;;;;4918861;29;20036;-90
2024/03/21 17:12:48;;;;;;;0.00;0.00;;;;;;;;;;4921146;29;20024;-90
2024/03/21 17:15:14;;;;;;;0.00;0.00;;;;;;;;;;4920970;29;20040;-90
2024/03/21 17:17:40;;;;;;;0.00;0.00;;;;;;;;;;4921636;29;20044;-90
2024/03/21 17:20:06;;;;;;;0.00;0.00;;;11.60;99.90;;;;;;4921769;29;20141;-90
2024/03/21 17:22:32;;;;;;;0.00;0.00;;;;;;;;;;4922275;29;20063;-89
2024/03/21 17:24:57;;;;;;;0.00;0.00;;;11.50;99.90;;;;;;4922058;29;20491;-89
2024/03/21 17:27:23;;;;;;;0.00;0.00;;;;;;;;;;4918312;29;20052;-90
2024/03/21 17:29:52;;;;;;;0.00;0.00;;;11.60;99.90;;;;;;4922064;29;20491;-91
2024/03/21 17:32:17;;;;;;;0.00;0.00;;;;;;;;;;4914698;29;20029;-91
2024/03/21 17:34:45;;;;;;;0.00;0.00;;;11.40;99.90;;;;;;4919255;29;20035;-90
2024/03/21 17:37:10;;;;;;;0.00;0.00;;;;;;;;;;4920157;29;20036;-91
2024/03/21 17:39:36;;;;;;;0.00;0.00;;;;;;;;;;4935365;29;20072;-89
2024/03/21 17:42:03;;;;;;;0.00;0.00;;;;;;;;;;4921984;29;20083;-90
2024/03/21 17:44:29;;;;;;;0.00;0.00;;;;;;;;;;4921746;29;20500;-90
2024/03/21 17:46:55;;;;;;;0.00;0.00;;;;;;;;;;4921550;29;20084;-90
2024/03/21 17:49:21;;;;;;;0.00;0.00;;;;;;;;;;4917323;29;20028;-87
2024/03/21 17:51:47;;;;;;;0.00;0.00;;;;;;;;;;4921244;29;20032;-90
2024/03/21 17:54:13;;;;;;;0.00;0.00;;;;;;;;;;4923391;29;20119;-90
2024/03/21 17:56:40;;;;;;;0.00;0.00;;;;;;;;;;4916973;29;20032;-90
2024/03/21 17:59:05;;;;;;;0.00;0.00;;;;;;;;;;4921811;29;20035;-91
2024/03/21 18:01:32;;;;;;;0.00;0.00;;;;;;;;;;4922809;29;20032;-90
2024/03/21 18:03:58;;;;;;;0.00;0.00;;;;;;;;;;4923367;29;20123;-90
2024/03/21 18:06:23;;;;;;;0.00;0.00;;;;;;;;;;4923955;29;20483;-90
2024/03/21 18:08:49;;;;;;;0.00;0.00;;;;;;;;;;4921143;29;20040;-89
2024/03/21 18:11:15;;;;;;;0.00;0.00;;;;;;;;;;4921693;29;20039;-91
2024/03/21 18:13:41;;;;;;;0.00;0.00;;;;;;;;;;4923397;29;20028;-90
2024/03/21 18:16:07;;;;;;;0.00;0.00;;;;;;;;;;4923000;29;20036;-91
2024/03/21 18:18:34;;;;;;;0.00;0.00;;;10.70;99.90;;;;;;4923253;29;20055;-90
2024/03/21 18:21:00;;;;;;;0.00;0.00;;;;;;;;;;4920540;29;20040;-90
2024/03/21 18:23:26;;;;;;;0.00;0.00;;;;;;;;;;4927290;29;20039;-90
2024/03/21 18:25:54;;;;;;;0.00;0.00;;;;;;;;;;4920730;29;20036;-90
2024/03/21 18:28:20;;;;;;;0.00;0.00;;;;;;;;;;4919401;29;20068;-91
2024/03/21 18:30:47;;;;;;;0.00;0.00;;;;;;;;;;4915431;29;20047;-90
2024/03/21 18:33:13;;;;;;;0.00;0.00;;;;;;;;;;4933103;29;20043;-90
2024/03/21 18:35:38;;;;;;;0.00;0.00;;;;;;;;;;4920234;29;20399;-90
2024/03/21 18:38:07;;;;;;;0.00;0.00;;;;;;;;;;4918362;29;20084;-90
2024/03/21 18:40:33;;;;;;;0.00;0.00;;;;;;;;;;4920130;29;20029;-91
2024/03/21 18:42:59;;;;;;;0.00;0.00;;;;;;;;;;4916057;29;20028;-91
2024/03/21 18:45:25;;;;;;;0.08;0.08;;;;;;;;;;4935980;29;20452;-90
2024/03/21 18:47:51;;;;;;;0.00;0.00;;;;;;;;;;4917731;29;20451;-90
2024/03/21 18:50:17;;;;;;;0.00;0.00;;;;;;;;;;4921146;29;20119;-90
2024/03/21 18:52:43;;;;;;;0.05;0.05;;;;;;;;;;4923619;29;20028;-91
2024/03/21 18:55:09;;;;;;;0.00;0.00;;;;;;;;;;4920112;29;20127;-92
2024/03/21 18:57:35;;;;;;;0.00;0.00;;;;;;;;;;4923752;29;20042;-90
2024/03/21 19:00:03;;;;;;;0.00;0.00;;;;;;;;;;4917891;29;20380;-91
2024/03/21 19:02:29;;;;;;;0.00;0.00;;;;;;;;;;4940934;29;20396;-89
2024/03/21 19:04:55;;;;;;;0.00;0.00;;;;;;;;;;4922435;29;20056;-91
2024/03/21 19:07:21;;;;;;;0.00;0.00;;;;;;;;;;4926285;29;20035;-90
2024/03/21 19:09:47;;;;;;;0.00;0.00;;;;;;;;;;4919369;29;20036;-90
2024/03/21 19:12:13;;;;;;;0.00;0.00;;;;;;;;;;4922053;29;20036;-91
2024/03/21 19:14:39;;;;;;;0.00;0.00;;;;;;;;;;4921181;29;20036;-91
2024/03/21 19:17:05;;;;;;;0.00;0.00;;;;;;;;;;4948289;28;20043;-89
2024/03/21 19:19:32;;;;;;;0.00;0.00;;;;;;;;;;4918166;29;20043;-90
2024/03/21 19:21:58;;;;;;;0.00;0.00;;;;;;;;;;4925989;29;20588;-90
2024/03/21 19:24:24;;;;;;;0.00;0.00;;;;;;;;;;4920649;29;20036;-91
2024/03/21 19:26:50;;;;;;;0.10;0.10;;;;;;;;;;4903347;29;20163;-90
2024/03/21 19:29:19;;;;;;;0.00;0.00;;;;;;;;;;4919459;29;20028;-90
2024/03/21 19:31:45;;;;;;;0.00;0.00;;;;;;;;;;4915979;29;20044;-91
2024/03/21 19:34:11;;;;;;;0.00;0.00;;;;;;;;;;4916597;29;20047;-91
2024/03/21 19:36:37;;;;;;;0.00;0.00;;;;;;;;;;4935233;29;20047;-90
2024/03/21 19:39:03;;;;;;;0.00;0.00;;;;;;;;;;4922176;29;20032;-90
2024/03/21 19:41:35;;;;;;;0.00;0.00;;;;;;;;;;4916715;29;20036;-91
2024/03/21 19:44:02;;;;;;;0.10;0.10;;;;;;;;;;4932616;29;20114;-88
2024/03/21 19:46:29;;;;;;;0.00;0.00;;;;;;;;;;4922404;29;20033;-90
2024/03/21 19:48:56;;;;;;;0.00;0.00;;;;;;;;;;4918139;29;20111;-90
2024/03/21 19:51:22;;;;;;;0.00;0.00;;;;;;;;;;4935885;29;20035;-90
2024/03/21 19:53:48;;;;;;;0.00;0.00;;;;;;;;;;4922479;29;20020;-90
2024/03/21 19:56:14;;;;;;;0.00;0.00;;;;;;;;;;4917453;29;20137;-90
2024/03/21 19:58:39;;;;;;;0.00;0.00;;;;;;;;;;4917923;29;20065;-91
2024/03/21 20:01:09;;;;;;;0.00;0.00;;;9.60;99.90;;;;;;4922673;29;20056;-90
2024/03/21 20:03:35;;;;;;;0.00;0.00;;;;;;;;;;4919936;29;20558;-88
2024/03/21 20:06:08;;;;;;;0.00;0.00;;;9.60;99.90;;;;;;4949917;28;20253;-91
2024/03/21 20:08:34;;;;;;;0.00;0.00;;;;;;;;;;4921808;29;20072;-90
2024/03/21 20:11:00;;;;;;;0.00;0.00;;;;;;;;;;4914759;29;20036;-90
2024/03/21 20:13:25;;;;;;;0.00;0.00;;;;;;;;;;4924899;29;20079;-90
2024/03/21 20:15:51;;;;;;;0.00;0.00;;;;;;;;;;4920910;29;20091;-91
2024/03/21 20:18:18;;;;;;;0.00;0.00;;;;;;;;;;4923042;29;20064;-90
2024/03/21 20:20:45;;;;;;;0.00;0.00;;;;;;;;;;4915718;29;20071;-90
2024/03/21 20:23:11;;;;;;;0.00;0.00;;;;;;;;;;4922249;29;20523;-91
2024/03/21 20:25:37;;;;;;;0.00;0.00;;;;;;;;;;4911700;29;20133;-90
2024/03/21 20:28:03;;;;;;;0.00;0.00;;;;;;;;;;4919063;29;20076;-91
2024/03/21 20:30:29;;;;;;;0.00;0.00;;;;;;;;;;4934042;29;20484;-91
2024/03/21 20:32:55;;;;;;;0.00;0.00;;;;;;;;;;4926692;29;20031;-90
2024/03/21 20:35:27;;;;;;;0.00;0.00;;;;;;;;;;4915997;29;20036;-91
2024/03/21 20:37:53;;;;;;;0.08;0.08;;;;;;;;;;4912717;29;20032;-90
2024/03/21 20:40:22;;;;;;;0.00;0.00;;;;;;;;;;4931027;29;20384;-91
2024/03/21 20:42:49;;;;;;;0.10;0.10;;;;;;;;;;4927975;29;20029;-91
2024/03/21 20:45:15;;;;;;;0.00;0.00;;;;;;;;;;4947355;28;20051;-91
2024/03/21 20:47:42;;;;;;;0.00;0.00;;;;;;;;;;4925916;29;20463;-90
2024/03/21 20:50:08;;;;;;;0.05;0.05;;;;;;;;;;4917007;29;20032;-89
2024/03/21 20:52:34;;;;;;;0.00;0.00;;;;;;;;;;4924503;29;20446;-90
2024/03/21 20:55:00;;;;;;;0.00;0.00;;;;;;;;;;4921755;29;20043;-90
2024/03/21 20:57:26;;;;;;;0.00;0.00;;;9.70;99.90;;;;;;4922569;29;20106;-90
2024/03/21 20:59:52;;;;;;;0.00;0.00;;;;;;;;;;4930175;29;20126;-90
2024/03/21 21:02:18;;;;;;;0.00;0.00;;;;;;;;;;4941571;29;20040;-90
2024/03/21 21:04:46;;;;;;;0.03;0.03;;;9.90;99.90;;;;;;4921984;29;20570;-92
2024/03/21 21:08:09;;;;;;;0.00;0.00;;;9.80;99.90;;;;;;4924274;29;20038;-91
2024/03/21 21:10:36;;;;;;;0.03;0.03;;;;;;;;;;4883584;29;20032;-90
2024/03/21 21:13:02;;;;;;;0.00;0.00;;;;;;;;;;4914951;29;20036;-90
2024/03/21 21:15:27;;;;;;;0.00;0.00;;;;;;;;;;4921597;29;20168;-90
2024/03/21 21:17:53;;;;;;;0.00;0.00;;;;;;;;;;4918320;29;20503;-90
2024/03/21 21:20:19;;;;;;;0.00;0.00;;;;;;;;;;4928172;29;20052;-91
2024/03/21 21:22:45;;;;;;;0.00;0.00;;;;;;;;;;4914854;29;20032;-90
2024/03/21 21:25:11;;;;;;;0.00;0.00;;;;;;;;;;4916778;29;20510;-90
2024/03/21 21:27:37;;;;;;;0.00;0.00;;;;;;;;;;4916785;29;20368;-90
2024/03/21 21:30:03;;;;;;;0.00;0.00;;;;;;;;;;4924066;29;20055;-91
2024/03/21 21:32:30;;;;;;;0.00;0.00;;;;;;;;;;4921736;29;20028;-90
2024/03/21 21:34:56;;;;;;;0.00;0.00;;;;;;;;;;4920547;29;20063;-90
2024/03/21 21:37:22;;;;;;;0.00;0.00;;;;;;;;;;4919096;29;20047;-90
2024/03/21 21:39:48;;;;;;;0.00;0.00;;;;;;;;;;4918326;29;20028;-91
2024/03/21 21:42:14;;;;;;;0.00;0.00;;;;;;;;;;4915022;29;20064;-91
2024/03/21 21:44:42;;;;;;;0.00;0.00;;;10.40;99.90;;;;;;4921122;29;20487;-93
2024/03/21 21:47:08;;;;;;;0.00;0.00;;;;;;;;;;4918254;29;20727;-90